Time;durP1;ratioP1;P1;durP2;ratioP2;P2;SDS_P1;SDS_P2;PMS_P1;PMS_P2;Temp;Humidity;BMP_temperature;BMP_pressure;BME280_temperature;BME280_humidity;BME280_pressure;Samples;Min_cycle;Max_cycle;Signal;HPM_P1;HPM_P2
2022/11/04 00:00:50;;;;;;;6.17;3.13;;;11.60;99.90;;;;;;5073647;28;19978;-75
2022/11/04 00:03:15;;;;;;;7.10;2.23;;;11.60;99.90;;;;;;5073686;28;20098;-74
2022/11/04 00:05:41;;;;;;;4.83;2.53;;;11.50;99.90;;;;;;5073302;28;20048;-75
2022/11/04 00:08:25;;;;;;;6.47;2.00;;;11.50;99.90;;;;;;5072655;28;20091;-74
2022/11/04 00:13:43;;;;;;;4.47;1.60;;;11.40;99.90;;;;;;5073237;28;20271;-75
2022/11/04 00:18:54;;;;;;;5.88;1.42;;;11.40;99.90;;;;;;5073541;28;20439;-75
2022/11/04 00:29:33;;;;;;;3.20;0.97;;;11.40;99.90;;;;;;5073037;28;20049;-74
2022/11/04 00:34:43;;;;;;;5.07;0.90;;;11.40;99.90;;;;;;5073049;28;20048;-74
2022/11/04 00:37:09;;;;;;;6.47;1.17;;;11.40;99.90;;;;;;5073206;28;20287;-75
2022/11/04 00:39:34;;;;;;;3.23;1.00;;;11.40;99.90;;;;;;5072959;28;20052;-75
2022/11/04 00:42:00;;;;;;;4.80;1.00;;;11.40;99.90;;;;;;5073173;28;20404;-75
2022/11/04 00:44:26;;;;;;;2.57;0.80;;;11.30;99.90;;;;;;5072930;28;20093;-75
2022/11/04 00:46:51;;;;;;;3.27;0.80;;;11.30;99.90;;;;;;5073097;28;20045;-75
2022/11/04 00:49:17;;;;;;;3.80;0.90;;;11.30;99.90;;;;;;5073105;28;20052;-74
2022/11/04 00:51:43;;;;;;;4.10;0.90;;;11.30;99.90;;;;;;5071599;28;20083;-74
2022/11/04 00:54:08;;;;;;;6.10;0.60;;;11.30;99.90;;;;;;5072990;28;20048;-75
2022/11/04 00:56:38;;;;;;;3.80;0.70;;;11.30;99.90;;;;;;5072734;28;20051;-75
2022/11/04 00:59:04;;;;;;;4.23;0.70;;;11.30;99.90;;;;;;5071822;28;20081;-75
2022/11/04 01:01:30;;;;;;;7.70;0.83;;;11.30;99.90;;;;;;5073080;28;20271;-75
2022/11/04 01:03:56;;;;;;;4.93;0.80;;;11.30;99.90;;;;;;5077088;28;20290;-74
2022/11/04 01:06:23;;;;;;;4.80;0.67;;;11.30;99.90;;;;;;5076637;28;20131;-74
2022/11/04 01:08:54;;;;;;;6.37;0.80;;;11.30;99.90;;;;;;5076621;28;20528;-74
2022/11/04 01:11:20;;;;;;;8.60;1.93;;;11.30;99.90;;;;;;5076722;28;20774;-74
2022/11/04 01:13:49;;;;;;;2.93;0.63;;;11.30;99.90;;;;;;5075477;28;20287;-74
2022/11/04 01:16:15;;;;;;;8.17;1.07;;;11.30;99.90;;;;;;5076726;28;20090;-74
2022/11/04 01:18:41;;;;;;;9.20;1.20;;;11.30;99.90;;;;;;5076457;28;20282;-74
2022/11/04 01:21:09;;;;;;;6.53;0.93;;;11.30;99.90;;;;;;5075657;28;20053;-74
2022/11/04 01:23:35;;;;;;;9.77;1.47;;;11.30;99.90;;;;;;5075972;28;20491;-74
2022/11/04 01:26:03;;;;;;;8.97;1.03;;;11.30;99.90;;;;;;5076475;28;20314;-74
2022/11/04 01:28:29;;;;;;;5.17;0.90;;;11.20;99.90;;;;;;5076430;28;20397;-76
2022/11/04 01:30:54;;;;;;;8.37;0.80;;;11.20;99.90;;;;;;5076431;28;20291;-74
2022/11/04 01:33:20;;;;;;;7.33;1.10;;;11.20;99.90;;;;;;5075459;28;20376;-74
2022/11/04 01:35:46;;;;;;;9.50;1.40;;;11.20;99.90;;;;;;5076023;28;20048;-74
2022/11/04 01:38:11;;;;;;;4.23;1.07;;;11.20;99.90;;;;;;5076499;28;20047;-74
2022/11/04 01:40:39;;;;;;;9.80;1.00;;;11.20;99.90;;;;;;5076073;28;20040;-74
2022/11/04 01:43:16;;;;;;;11.00;1.33;;;11.20;99.90;;;;;;5076378;28;20045;-74
2022/11/04 01:45:55;;;;;;;11.90;1.30;;;11.20;99.90;;;;;;5074792;28;20743;-74
2022/11/04 01:48:33;;;;;;;7.90;1.23;;;11.20;99.90;;;;;;5076565;28;20612;-74
2022/11/04 01:50:59;;;;;;;7.87;1.07;;;11.20;99.90;;;;;;5076323;28;20295;-74
2022/11/04 01:53:32;;;;;;;9.33;1.00;;;11.20;99.90;;;;;;5076138;28;20337;-74
2022/11/04 01:56:01;;;;;;;9.60;1.00;;;11.20;99.90;;;;;;5076464;28;20271;-74
2022/11/04 01:58:34;;;;;;;7.50;1.00;;;11.20;99.90;;;;;;5075192;28;20786;-74
2022/11/04 02:01:01;;;;;;;8.63;1.30;;;11.20;99.90;;;;;;5076044;28;20278;-74
2022/11/04 02:03:53;;;;;;;11.40;1.50;;;11.20;99.90;;;;;;5076002;28;20286;-74
2022/11/04 02:06:21;;;;;;;9.37;1.20;;;11.20;99.90;;;;;;5076216;28;20278;-73
2022/11/04 02:08:47;;;;;;;5.83;1.33;;;11.20;99.90;;;;;;5075918;28;20354;-73
2022/11/04 02:12:48;;;;;;;8.87;1.10;;;11.20;99.90;;;;;;5075768;28;20305;-73
2022/11/04 02:13:59;;;;;;;;;;;11.20;99.90;;;;;;5076014;28;20283;-74
2022/11/04 02:16:43;;;;;;;10.27;1.63;;;11.20;99.90;;;;;;5075761;28;19921;-75
2022/11/04 02:19:30;;;;;;;10.37;1.27;;;11.20;99.90;;;;;;5076045;28;20271;-75
2022/11/04 02:22:14;;;;;;;9.67;1.20;;;11.30;99.90;;;;;;5075328;28;20286;-75
2022/11/04 02:24:52;;;;;;;7.30;1.17;;;11.20;99.90;;;;;;5075318;28;20289;-75
2022/11/04 02:27:36;;;;;;;10.70;1.30;;;11.30;99.90;;;;;;5075594;28;20286;-74
2022/11/04 02:30:09;;;;;;;9.83;1.13;;;11.30;99.90;;;;;;5075363;28;20778;-75
2022/11/04 02:32:53;;;;;;;8.52;1.17;;;11.30;99.90;;;;;;5075444;28;20356;-81
2022/11/04 02:35:29;;;;;;;9.70;1.47;;;11.30;99.90;;;;;;5075482;28;20052;-74
2022/11/04 02:38:01;;;;;;;4.83;0.90;;;11.20;99.90;;;;;;5075425;28;20298;-74
2022/11/04 02:40:56;;;;;;;15.07;2.00;;;11.20;99.90;;;;;;5075554;28;20362;-74
2022/11/04 02:43:47;;;;;;;7.18;0.90;;;11.20;99.90;;;;;;5075276;28;20275;-74
2022/11/04 02:46:23;;;;;;;5.10;1.00;;;11.20;99.90;;;;;;5075188;28;20056;-74
2022/11/04 02:48:59;;;;;;;7.57;1.10;;;11.20;99.90;;;;;;5074996;28;20286;-74
2022/11/04 02:51:32;;;;;;;7.17;1.40;;;11.20;99.90;;;;;;5075039;28;20351;-74
2022/11/04 02:54:29;;;;;;;6.80;1.17;;;11.20;99.90;;;;;;5074864;28;20278;-73
2022/11/04 02:56:59;;;;;;;4.20;0.77;;;11.20;99.90;;;;;;5056974;28;20326;-73
2022/11/04 02:59:36;;;;;;;8.73;1.13;;;11.20;99.90;;;;;;5074870;28;20318;-73
2022/11/04 03:02:06;;;;;;;7.90;1.13;;;11.20;99.90;;;;;;5074602;28;20747;-73
2022/11/04 03:04:39;;;;;;;4.93;0.90;;;11.10;99.90;;;;;;5075014;28;20317;-73
2022/11/04 03:07:09;;;;;;;6.70;1.30;;;11.20;99.90;;;;;;5074689;28;20345;-73
2022/11/04 03:09:37;;;;;;;7.73;0.97;;;11.10;99.90;;;;;;5074720;28;20286;-73
2022/11/04 03:12:09;;;;;;;7.80;1.40;;;11.10;99.90;;;;;;5074415;28;20315;-73
2022/11/04 03:14:42;;;;;;;9.23;1.20;;;11.10;99.90;;;;;;5074618;28;20751;-73
2022/11/04 03:17:20;;;;;;;10.43;1.30;;;11.10;99.90;;;;;;5074267;28;20842;-73
2022/11/04 03:20:09;;;;;;;9.47;1.67;;;11.10;99.90;;;;;;5074621;28;20286;-73
2022/11/04 03:22:36;;;;;;;7.77;1.10;;;11.10;99.90;;;;;;5074661;28;20281;-73
2022/11/04 03:25:04;;;;;;;9.07;1.20;;;11.10;99.90;;;;;;5073579;28;20428;-73
2022/11/04 03:27:39;;;;;;;7.47;1.50;;;11.10;99.90;;;;;;5074468;28;20282;-73
2022/11/04 03:30:16;;;;;;;12.35;1.67;;;11.10;99.90;;;;;;5073970;28;20331;-73
2022/11/04 03:32:42;;;;;;;8.73;1.60;;;11.10;99.90;;;;;;5074347;28;20106;-73
2022/11/04 03:35:09;;;;;;;12.00;1.40;;;11.10;99.90;;;;;;5074245;28;20287;-73
2022/11/04 03:37:35;;;;;;;10.03;1.60;;;11.00;99.90;;;;;;5074252;28;20056;-74
2022/11/04 03:40:01;;;;;;;6.50;1.73;;;11.00;99.90;;;;;;5073554;28;20290;-75
2022/11/04 03:42:31;;;;;;;5.50;1.50;;;11.00;99.90;;;;;;5073880;28;20520;-75
2022/11/04 03:44:58;;;;;;;7.33;1.20;;;11.00;99.90;;;;;;5072677;28;20708;-75
2022/11/04 03:47:29;;;;;;;10.60;2.13;;;11.00;99.90;;;;;;5072899;28;20297;-75
2022/11/04 03:50:11;;;;;;;8.30;1.70;;;10.90;99.90;;;;;;5073614;28;20294;-73
2022/11/04 03:52:38;;;;;;;7.93;1.40;;;10.90;99.90;;;;;;5074027;28;20623;-75
2022/11/04 03:55:05;;;;;;;10.57;1.77;;;10.90;99.90;;;;;;5073603;28;20278;-76
2022/11/04 03:57:48;;;;;;;4.67;1.20;;;10.90;99.90;;;;;;5073799;28;20279;-75
2022/11/04 04:00:20;;;;;;;7.10;1.43;;;10.80;99.90;;;;;;5074029;28;20311;-75
2022/11/04 04:02:48;;;;;;;8.73;1.30;;;10.90;99.90;;;;;;5073578;28;20321;-74
2022/11/04 04:05:25;;;;;;;5.60;0.93;;;10.90;99.90;;;;;;5073899;28;20674;-75
2022/11/04 04:08:13;;;;;;;5.77;1.20;;;10.90;99.90;;;;;;5073486;28;20286;-75
2022/11/04 04:11:11;;;;;;;5.17;1.20;;;10.90;99.90;;;;;;5073324;28;20790;-75
2022/11/04 04:13:58;;;;;;;6.60;1.10;;;10.90;99.90;;;;;;5064171;28;20356;-75
2022/11/04 04:16:38;;;;;;;6.13;0.90;;;10.90;99.90;;;;;;5073527;28;20275;-75
2022/11/04 04:19:19;;;;;;;5.93;1.50;;;10.90;99.90;;;;;;5072031;28;20767;-75
2022/11/04 04:21:51;;;;;;;3.00;0.93;;;10.80;99.90;;;;;;5073502;28;20274;-75
2022/11/04 04:29:51;;;;;;;4.60;0.83;;;10.80;99.90;;;;;;5073401;28;20700;-79
2022/11/04 04:32:19;;;;;;;3.57;0.90;;;10.70;99.90;;;;;;5073279;28;20274;-75
2022/11/04 04:34:44;;;;;;;2.40;0.70;;;10.70;99.90;;;;;;5073245;28;20314;-75
2022/11/04 04:37:24;;;;;;;4.63;0.80;;;10.70;99.90;;;;;;5071670;28;20892;-75
2022/11/04 04:44:58;;;;;;;5.27;1.07;;;10.70;99.90;;;;;;5073181;28;20739;-74
2022/11/04 04:45:47;;;;;;;5.23;0.80;;;10.70;99.90;;;;;;5072944;28;20306;-74
2022/11/04 04:48:12;;;;;;;8.43;1.50;;;10.70;99.90;;;;;;5072876;28;20278;-75
2022/11/04 04:50:44;;;;;;;5.80;1.10;;;10.70;99.90;;;;;;5073016;28;20301;-75
2022/11/04 04:53:11;;;;;;;4.03;1.00;;;10.70;99.90;;;;;;5072849;28;20048;-76
2022/11/04 04:55:36;;;;;;;4.70;1.00;;;10.70;99.90;;;;;;5073089;28;20274;-75
2022/11/04 04:58:02;;;;;;;5.03;1.10;;;10.70;99.90;;;;;;5071799;28;20287;-76
2022/11/04 05:00:28;;;;;;;5.67;0.93;;;10.70;99.90;;;;;;5072967;28;20120;-75
2022/11/04 05:02:54;;;;;;;5.50;1.00;;;10.70;99.90;;;;;;5072687;28;20069;-80
2022/11/04 05:05:20;;;;;;;5.33;0.87;;;10.70;99.90;;;;;;5072940;28;20056;-74
2022/11/04 05:07:46;;;;;;;12.03;1.43;;;10.70;99.90;;;;;;5072922;28;20322;-74
2022/11/04 05:10:14;;;;;;;7.77;1.00;;;10.70;99.90;;;;;;5071553;28;20311;-74
2022/11/04 05:13:26;;;;;;;6.77;1.30;;;10.70;99.90;;;;;;5073036;28;20648;-74
2022/11/04 05:15:28;;;;;;;6.50;1.23;;;10.70;99.90;;;;;;5068523;28;20709;-74
2022/11/04 05:17:55;;;;;;;5.20;1.00;;;10.70;99.90;;;;;;5072787;28;20279;-74
2022/11/04 05:20:22;;;;;;;6.80;1.30;;;10.60;99.90;;;;;;5072783;28;20282;-74
2022/11/04 05:22:47;;;;;;;6.93;1.30;;;10.60;99.90;;;;;;5072741;28;20306;-74
2022/11/04 05:25:13;;;;;;;6.03;0.83;;;10.70;99.90;;;;;;5072509;28;20750;-74
2022/11/04 05:27:39;;;;;;;8.70;1.07;;;10.70;99.90;;;;;;5072742;28;20048;-74
2022/11/04 05:30:05;;;;;;;5.27;1.20;;;10.70;99.90;;;;;;5072341;28;20041;-74
2022/11/04 05:32:31;;;;;;;5.23;1.20;;;10.60;99.90;;;;;;5072924;28;20128;-74
2022/11/04 05:34:57;;;;;;;4.27;1.10;;;10.60;99.90;;;;;;5072598;28;20386;-79
2022/11/04 05:37:23;;;;;;;6.50;1.20;;;10.60;99.90;;;;;;5072531;28;20064;-73
2022/11/04 05:39:49;;;;;;;7.67;1.07;;;10.50;99.90;;;;;;5072613;28;20290;-73
2022/11/04 05:42:14;;;;;;;7.27;1.10;;;10.50;99.90;;;;;;5072315;28;20040;-74
2022/11/04 05:44:40;;;;;;;6.27;1.30;;;10.50;99.90;;;;;;5072238;28;20083;-73
2022/11/04 05:47:06;;;;;;;8.57;1.43;;;10.50;99.90;;;;;;5072299;28;20044;-73
2022/11/04 05:49:32;;;;;;;6.97;1.20;;;10.40;99.90;;;;;;5076009;28;20500;-73
2022/11/04 05:51:58;;;;;;;6.37;1.20;;;10.40;99.90;;;;;;5075181;28;20123;-73
2022/11/04 05:54:24;;;;;;;7.77;1.50;;;10.40;99.90;;;;;;5075904;28;20754;-73
2022/11/04 05:56:49;;;;;;;5.37;1.30;;;10.40;99.90;;;;;;5074975;28;20044;-73
2022/11/04 05:59:15;;;;;;;8.50;1.40;;;10.30;99.90;;;;;;5074648;28;20080;-73
2022/11/04 06:01:42;;;;;;;6.30;1.07;;;10.30;99.90;;;;;;5074580;28;20131;-73
2022/11/04 06:04:13;;;;;;;8.90;1.50;;;10.30;99.90;;;;;;5075737;28;20048;-73
2022/11/04 06:06:39;;;;;;;5.50;1.43;;;10.20;99.90;;;;;;5075997;28;20366;-73
2022/11/04 06:09:05;;;;;;;4.70;1.30;;;10.20;99.90;;;;;;5075749;28;20377;-73
2022/11/04 06:11:32;;;;;;;6.00;1.50;;;10.20;99.90;;;;;;5075809;28;20316;-73
2022/11/04 06:13:58;;;;;;;4.73;1.60;;;10.20;99.90;;;;;;5075885;28;20101;-73
2022/11/04 06:16:24;;;;;;;6.80;1.87;;;10.20;99.90;;;;;;5075487;28;20283;-73
2022/11/04 06:18:50;;;;;;;5.73;1.40;;;10.20;99.90;;;;;;5074227;28;20312;-73
2022/11/04 06:21:17;;;;;;;9.17;1.60;;;10.10;99.90;;;;;;5075412;28;20037;-73
2022/11/04 06:23:43;;;;;;;3.53;1.27;;;10.10;99.90;;;;;;5075597;28;20778;-73
2022/11/04 06:26:11;;;;;;;4.93;1.67;;;10.10;99.90;;;;;;5075311;28;20333;-73
2022/11/04 06:28:37;;;;;;;6.77;2.20;;;10.10;99.90;;;;;;5075509;28;20351;-73
2022/11/04 06:31:05;;;;;;;10.17;1.70;;;10.10;99.90;;;;;;5075281;28;20301;-77
2022/11/04 06:33:31;;;;;;;4.80;1.57;;;10.00;99.90;;;;;;5075429;28;20333;-73
2022/11/04 06:36:02;;;;;;;5.80;1.77;;;10.00;99.90;;;;;;5075345;28;20778;-73
2022/11/04 06:38:30;;;;;;;6.43;1.80;;;9.90;99.90;;;;;;5075210;28;20063;-73
2022/11/04 06:40:56;;;;;;;8.73;1.80;;;9.90;99.90;;;;;;5074388;28;20287;-73
2022/11/04 06:43:22;;;;;;;6.47;1.50;;;9.90;99.90;;;;;;5075030;28;20283;-73
2022/11/04 06:45:55;;;;;;;6.17;1.60;;;9.90;99.90;;;;;;5075263;28;20616;-73
2022/11/04 06:48:21;;;;;;;6.50;1.50;;;9.80;99.90;;;;;;5074862;28;20045;-74
2022/11/04 06:50:46;;;;;;;6.47;1.70;;;9.90;99.90;;;;;;5075134;28;20301;-73
2022/11/04 06:53:12;;;;;;;8.03;1.67;;;9.90;99.90;;;;;;5074840;28;20048;-73
2022/11/04 06:55:38;;;;;;;4.67;1.60;;;9.80;99.90;;;;;;5075054;28;20481;-73
2022/11/04 06:58:03;;;;;;;8.93;1.87;;;9.90;99.90;;;;;;5075117;28;20051;-73
2022/11/04 07:00:29;;;;;;;7.10;1.80;;;9.80;99.90;;;;;;5073773;28;20485;-73
2022/11/04 07:02:55;;;;;;;6.10;1.60;;;9.90;99.90;;;;;;5057275;28;20053;-73
2022/11/04 07:05:20;;;;;;;7.97;1.60;;;9.90;99.90;;;;;;5073358;28;20095;-73
2022/11/04 07:07:46;;;;;;;5.30;1.70;;;9.90;99.90;;;;;;5074959;28;20083;-73
2022/11/04 07:10:12;;;;;;;6.83;1.50;;;9.80;99.90;;;;;;5074500;28;20447;-74
2022/11/04 07:12:37;;;;;;;6.10;1.67;;;9.90;99.90;;;;;;5057418;28;20077;-74
2022/11/04 07:15:04;;;;;;;10.73;1.90;;;9.80;99.90;;;;;;5074725;28;20055;-73
2022/11/04 07:17:29;;;;;;;7.97;1.70;;;9.90;99.90;;;;;;5073078;28;20040;-73
2022/11/04 07:19:55;;;;;;;5.77;1.47;;;9.80;99.90;;;;;;5074534;28;20278;-73
2022/11/04 07:22:20;;;;;;;7.67;1.67;;;9.80;99.90;;;;;;5074242;28;20055;-73
2022/11/04 07:24:46;;;;;;;5.73;1.40;;;9.80;99.90;;;;;;5074819;28;20051;-73
2022/11/04 07:27:12;;;;;;;5.53;1.50;;;9.80;99.90;;;;;;5056437;28;20059;-73
2022/11/04 07:29:37;;;;;;;4.43;1.50;;;9.80;99.90;;;;;;5074593;28;20090;-73
2022/11/04 07:32:03;;;;;;;5.07;1.60;;;9.80;99.90;;;;;;5074391;28;20040;-73
2022/11/04 07:34:29;;;;;;;7.87;1.60;;;9.90;99.90;;;;;;5074099;28;20037;-73
2022/11/04 07:36:55;;;;;;;10.40;2.30;;;9.90;99.90;;;;;;5074199;28;20290;-73
2022/11/04 07:39:20;;;;;;;4.17;1.60;;;9.90;99.90;;;;;;5073930;28;20135;-73
2022/11/04 07:41:46;;;;;;;6.80;1.60;;;9.90;99.90;;;;;;5072951;28;20128;-73
2022/11/04 07:44:12;;;;;;;10.47;1.70;;;9.90;99.90;;;;;;5074054;28;20049;-77
2022/11/04 07:46:38;;;;;;;8.00;1.80;;;9.90;99.90;;;;;;5074171;28;20044;-74
2022/11/04 07:49:04;;;;;;;6.20;1.53;;;9.90;99.90;;;;;;5072785;28;20364;-74
2022/11/04 07:51:31;;;;;;;7.43;2.10;;;10.00;99.90;;;;;;5073677;28;20048;-84
2022/11/04 07:53:57;;;;;;;6.63;1.47;;;10.00;99.90;;;;;;5073936;28;20052;-74
2022/11/04 07:56:23;;;;;;;6.77;1.53;;;10.00;99.90;;;;;;5073607;28;20358;-74
2022/11/04 07:58:49;;;;;;;6.20;1.53;;;10.00;99.90;;;;;;5073861;28;20734;-74
2022/11/04 08:01:18;;;;;;;6.17;2.00;;;10.00;99.90;;;;;;5073634;28;20072;-75
2022/11/04 08:03:44;;;;;;;8.03;1.80;;;10.00;99.90;;;;;;5073758;28;20301;-74
2022/11/04 08:06:12;;;;;;;6.07;1.80;;;10.00;99.90;;;;;;5073744;28;20278;-74
2022/11/04 08:08:38;;;;;;;6.53;2.10;;;10.00;99.90;;;;;;5073424;28;20631;-74
2022/11/04 08:11:09;;;;;;;8.53;2.10;;;10.00;99.90;;;;;;5073412;28;20314;-74
2022/11/04 08:13:36;;;;;;;7.63;2.37;;;10.00;99.90;;;;;;5073325;28;20279;-75
2022/11/04 08:16:04;;;;;;;6.37;2.37;;;10.00;99.90;;;;;;5073530;28;20283;-75
2022/11/04 08:18:31;;;;;;;7.07;1.87;;;10.00;99.90;;;;;;5072755;28;20382;-75
2022/11/04 08:20:57;;;;;;;5.57;2.00;;;10.10;99.90;;;;;;5073463;28;20314;-75
2022/11/04 08:23:22;;;;;;;8.03;1.53;;;10.10;99.90;;;;;;5073128;28;20384;-75
2022/11/04 08:25:48;;;;;;;6.87;1.60;;;10.10;99.90;;;;;;5073383;28;20512;-75
2022/11/04 08:28:17;;;;;;;5.57;1.33;;;10.10;99.90;;;;;;5073346;28;20048;-75
2022/11/04 08:31:01;;;;;;;5.77;1.40;;;10.20;99.90;;;;;;5073064;28;20040;-75
2022/11/04 08:33:28;;;;;;;6.00;1.50;;;10.20;99.90;;;;;;5073113;28;20297;-75
2022/11/04 08:35:59;;;;;;;7.93;1.77;;;10.20;99.90;;;;;;5073307;28;20286;-74
2022/11/04 08:38:25;;;;;;;6.07;1.30;;;10.20;99.90;;;;;;5073143;28;20271;-75
2022/11/04 08:40:51;;;;;;;7.27;1.70;;;10.30;99.90;;;;;;5073205;28;20768;-74
2022/11/04 08:43:17;;;;;;;9.57;1.93;;;10.30;99.90;;;;;;5073194;28;20052;-74
2022/11/04 08:45:45;;;;;;;5.17;1.40;;;10.30;99.90;;;;;;5072583;28;20283;-74
2022/11/04 08:48:12;;;;;;;6.53;1.70;;;10.30;99.90;;;;;;5073130;28;20052;-75
2022/11/04 08:50:38;;;;;;;6.00;1.50;;;10.30;99.90;;;;;;5072724;28;20681;-75
2022/11/04 08:53:04;;;;;;;7.27;1.97;;;10.40;99.90;;;;;;5073077;28;20270;-74
2022/11/04 08:55:31;;;;;;;5.23;1.60;;;10.40;99.90;;;;;;5072803;28;20624;-74
2022/11/04 08:57:58;;;;;;;6.67;1.70;;;10.40;99.90;;;;;;5073064;28;20298;-75
2022/11/04 09:00:24;;;;;;;7.53;2.07;;;10.40;99.90;;;;;;5072739;28;20286;-76
2022/11/04 09:02:50;;;;;;;6.17;1.73;;;10.40;99.90;;;;;;5072928;28;20438;-75
2022/11/04 09:05:16;;;;;;;5.63;1.80;;;10.40;99.90;;;;;;5072970;28;20294;-76
2022/11/04 09:07:42;;;;;;;6.77;1.80;;;10.50;99.90;;;;;;5071529;28;20251;-77
2022/11/04 09:10:09;;;;;;;6.63;1.87;;;10.50;99.90;;;;;;5071838;28;20814;-77
2022/11/04 09:12:35;;;;;;;7.27;2.30;;;10.50;99.90;;;;;;5072591;28;20048;-73
2022/11/04 09:15:02;;;;;;;5.70;2.10;;;10.50;99.90;;;;;;5072918;28;20290;-74
2022/11/04 09:17:28;;;;;;;5.03;1.80;;;10.60;99.90;;;;;;5072554;28;20055;-73
2022/11/04 09:19:54;;;;;;;6.03;1.60;;;10.60;99.90;;;;;;5071660;28;20279;-77
2022/11/04 09:22:19;;;;;;;6.73;1.70;;;10.70;99.90;;;;;;5072794;28;20370;-82
2022/11/04 09:24:45;;;;;;;5.33;1.30;;;10.70;99.90;;;;;;5076460;28;20040;-81
2022/11/04 09:27:10;;;;;;;6.17;1.43;;;10.70;99.90;;;;;;5076684;28;20052;-78
2022/11/04 09:29:36;;;;;;;5.27;1.27;;;10.70;99.90;;;;;;5075164;28;20127;-79
2022/11/04 09:32:03;;;;;;;4.03;1.13;;;10.70;99.90;;;;;;5075714;28;20369;-79
2022/11/04 09:34:29;;;;;;;5.20;1.40;;;10.80;99.90;;;;;;5076372;28;20052;-77
2022/11/04 09:36:56;;;;;;;6.03;1.53;;;10.80;99.90;;;;;;5075082;28;20635;-80
2022/11/04 09:39:23;;;;;;;6.20;1.30;;;10.80;99.90;;;;;;5076649;28;20348;-83
2022/11/04 09:42:10;;;;;;;7.20;1.80;;;10.90;99.90;;;;;;5076443;28;20275;-79
2022/11/04 09:44:53;;;;;;;6.73;1.87;;;10.90;99.90;;;;;;5076104;28;20344;-76
2022/11/04 09:47:21;;;;;;;7.10;1.30;;;11.00;99.90;;;;;;5075646;28;20290;-76
2022/11/04 09:49:50;;;;;;;5.13;1.40;;;11.00;99.90;;;;;;5075961;28;20282;-79
2022/11/04 09:52:54;;;;;;;4.73;1.40;;;11.00;99.90;;;;;;5076207;28;20314;-69
2022/11/04 09:55:33;;;;;;;5.53;1.33;;;10.90;99.90;;;;;;5076280;28;20358;-76
2022/11/04 09:57:59;;;;;;;7.17;1.53;;;10.90;99.90;;;;;;5074962;28;20286;-75
2022/11/04 10:00:27;;;;;;;4.50;1.50;;;10.90;99.90;;;;;;5074882;28;20267;-77
2022/11/04 10:02:56;;;;;;;5.57;1.40;;;11.00;99.90;;;;;;5075966;28;20115;-76
2022/11/04 10:06:00;;;;;;;6.80;1.60;;;11.00;99.90;;;;;;5075061;28;20302;-83
2022/11/04 10:08:59;;;;;;;4.50;1.20;;;11.10;99.90;;;;;;5074249;28;20295;-81
2022/11/04 10:11:37;;;;;;;5.97;1.20;;;11.30;99.90;;;;;;5057763;28;20303;-73
2022/11/04 10:14:17;;;;;;;8.93;2.13;;;11.50;99.90;;;;;;5074705;28;20302;-73
2022/11/04 10:17:00;;;;;;;6.03;1.23;;;11.70;99.90;;;;;;5074942;28;20299;-79
2022/11/04 10:19:58;;;;;;;8.43;1.10;;;11.80;99.90;;;;;;5075680;28;20557;-77
2022/11/04 10:22:55;;;;;;;8.33;1.50;;;11.90;99.90;;;;;;5075884;28;20286;-74
2022/11/04 10:25:24;;;;;;;6.60;1.80;;;12.00;99.90;;;;;;5075865;28;20275;-78
2022/11/04 10:27:51;;;;;;;5.03;1.50;;;12.00;99.90;;;;;;5075325;28;20608;-78
2022/11/04 10:30:22;;;;;;;3.90;1.43;;;12.10;99.90;;;;;;5075542;28;20318;-80
2022/11/04 10:32:51;;;;;;;10.77;1.50;;;12.20;99.90;;;;;;5075270;28;20289;-75
2022/11/04 10:35:41;;;;;;;6.10;1.17;;;12.20;99.90;;;;;;5074144;28;20369;-73
2022/11/04 10:38:40;;;;;;;5.63;1.20;;;12.10;99.90;;;;;;5075693;28;20608;-81
2022/11/04 10:41:39;;;;;;;4.87;1.17;;;11.90;99.90;;;;;;5075464;28;20282;-77
2022/11/04 10:44:15;;;;;;;5.47;1.10;;;11.70;99.90;;;;;;5067603;28;20295;-78
2022/11/04 10:46:47;;;;;;;3.30;0.77;;;11.60;99.90;;;;;;5074479;28;20282;-82
2022/11/04 10:49:27;;;;;;;4.00;1.03;;;11.60;99.90;;;;;;5073979;28;20318;-79
2022/11/04 10:51:54;;;;;;;5.70;1.10;;;11.50;99.90;;;;;;5073411;28;20777;-79
2022/11/04 10:54:21;;;;;;;5.70;1.40;;;11.40;99.90;;;;;;5075094;28;20285;-78
2022/11/04 10:56:52;;;;;;;5.77;1.03;;;11.40;99.90;;;;;;5074888;28;20755;-78
2022/11/04 10:59:41;;;;;;;6.20;1.40;;;11.40;99.90;;;;;;5075187;28;20628;-78
2022/11/04 11:02:06;;;;;;;7.47;1.53;;;11.40;99.90;;;;;;5075218;28;20332;-78
2022/11/04 11:04:37;;;;;;;12.90;1.30;;;11.50;99.90;;;;;;5075025;28;20283;-78
2022/11/04 11:07:06;;;;;;;6.40;1.20;;;11.50;99.90;;;;;;5075092;28;20127;-78
2022/11/04 11:09:36;;;;;;;10.07;2.13;;;11.50;99.90;;;;;;5074978;28;20318;-77
2022/11/04 11:12:35;;;;;;;7.00;1.20;;;11.60;99.90;;;;;;5073945;28;20282;-78
2022/11/04 11:15:37;;;;;;;7.37;2.47;;;11.60;99.90;;;;;;5074784;28;20369;-78
2022/11/04 11:18:14;;;;;;;6.77;1.50;;;11.80;99.90;;;;;;5074550;28;20780;-77
2022/11/04 11:21:01;;;;;;;6.60;1.50;;;12.00;99.90;;;;;;5074553;28;20362;-78
2022/11/04 11:23:34;;;;;;;6.20;1.60;;;12.20;99.90;;;;;;5067100;28;20302;-77
2022/11/04 11:26:02;;;;;;;5.43;1.50;;;12.40;99.90;;;;;;5074416;28;20360;-78
2022/11/04 11:28:29;;;;;;;10.47;1.97;;;12.50;99.90;;;;;;5073966;28;20677;-73
2022/11/04 11:30:58;;;;;;;8.07;1.30;;;12.50;99.90;;;;;;5073784;28;20291;-75
2022/11/04 11:33:33;;;;;;;6.70;1.60;;;12.40;99.90;;;;;;5073870;28;20287;-77
2022/11/04 11:36:19;;;;;;;7.10;1.48;;;12.40;99.90;;;;;;5071764;28;20355;-75
2022/11/04 11:39:04;;;;;;;7.77;1.50;;;12.40;99.90;;;;;;5074032;28;20058;-76
2022/11/04 11:41:47;;;;;;;7.38;1.40;;;12.30;99.90;;;;;;5074181;28;20317;-76
2022/11/04 11:44:27;;;;;;;6.50;1.40;;;12.30;99.90;;;;;;5074464;28;20200;-75
2022/11/04 11:47:00;;;;;;;5.50;1.60;;;12.20;99.90;;;;;;5073442;28;20639;-76
2022/11/04 11:49:34;;;;;;;7.83;1.40;;;12.10;99.90;;;;;;5074107;28;20282;-78
2022/11/04 11:52:28;;;;;;;6.53;1.20;;;12.10;99.90;;;;;;5073602;28;20643;-82
2022/11/04 11:55:20;;;;;;;6.63;1.30;;;12.10;99.90;;;;;;5073716;28;20353;-77
2022/11/04 11:58:11;;;;;;;8.10;1.90;;;12.00;99.90;;;;;;5069513;28;20291;-78
2022/11/04 12:00:44;;;;;;;9.17;1.57;;;11.90;99.90;;;;;;5074067;28;20630;-74
2022/11/04 12:03:30;;;;;;;7.93;1.40;;;12.00;99.90;;;;;;5073864;28;20314;-78
2022/11/04 12:06:14;;;;;;;10.83;1.40;;;11.90;99.90;;;;;;5073639;28;20299;-78
2022/11/04 12:08:48;;;;;;;8.53;1.73;;;11.90;99.90;;;;;;5073733;28;20329;-77
2022/11/04 12:11:43;;;;;;;9.10;1.92;;;11.90;99.90;;;;;;5073620;28;20307;-77
2022/11/04 12:14:30;;;;;;;10.80;2.27;;;11.90;99.90;;;;;;5064674;28;20078;-78
2022/11/04 12:22:25;;;;;;;9.13;1.63;;;11.80;99.90;;;;;;5864126;23;20641;-84
2022/11/04 12:25:14;;;;;;;7.77;1.83;;;11.80;99.90;;;;;;5013371;28;20671;-74
2022/11/04 12:27:46;;;;;;;7.23;1.37;;;11.80;99.90;;;;;;5003926;28;20332;-75
2022/11/04 12:30:16;;;;;;;10.17;1.57;;;11.80;99.90;;;;;;5014559;28;20415;-75
2022/11/04 12:32:57;;;;;;;6.80;2.00;;;11.80;99.90;;;;;;5014567;28;20628;-77
2022/11/04 12:36:07;;;;;;;9.73;2.77;;;11.80;99.90;;;;;;5014933;28;20285;-70
2022/11/04 12:39:01;;;;;;;6.83;2.00;;;11.80;99.90;;;;;;5008348;28;20780;-68
2022/11/04 12:41:34;;;;;;;8.10;1.50;;;11.80;99.90;;;;;;5014461;28;20288;-74
2022/11/04 12:44:06;;;;;;;6.83;1.70;;;11.70;99.90;;;;;;5014208;28;20288;-74
2022/11/04 12:47:18;;;;;;;5.10;1.37;;;11.70;99.90;;;;;;5014425;28;20307;-73
2022/11/04 12:50:24;;;;;;;8.97;2.13;;;11.70;99.90;;;;;;5008722;28;20380;-74
2022/11/04 12:52:50;;;;;;;;;;;11.70;99.90;;;;;;5010868;28;20351;-74
2022/11/04 12:55:22;;;;;;;5.87;1.50;;;11.70;99.90;;;;;;5013993;28;19921;-76
2022/11/04 12:58:00;;;;;;;9.73;1.90;;;11.80;99.90;;;;;;5013739;28;20384;-74
2022/11/04 13:00:30;;;;;;;9.17;1.60;;;11.80;99.90;;;;;;5014745;28;20281;-74
2022/11/04 13:03:12;;;;;;;11.07;1.93;;;11.80;99.90;;;;;;5013850;28;20277;-73
2022/11/04 13:05:48;;;;;;;10.53;1.73;;;11.80;99.90;;;;;;5014712;28;20288;-72
2022/11/04 13:08:19;;;;;;;10.77;2.07;;;11.80;99.90;;;;;;5013848;28;20300;-73
2022/11/04 13:11:00;;;;;;;8.27;2.07;;;11.80;99.90;;;;;;5013960;28;20303;-78
2022/11/04 13:13:33;;;;;;;9.83;1.97;;;11.90;99.90;;;;;;5013822;28;20851;-74
2022/11/04 13:16:05;;;;;;;14.03;2.20;;;11.80;99.90;;;;;;5014634;28;20313;-80
2022/11/04 13:18:35;;;;;;;8.40;1.63;;;11.90;99.90;;;;;;5013841;28;20276;-78
2022/11/04 13:21:05;;;;;;;8.53;1.80;;;11.90;99.90;;;;;;5014282;28;20273;-77
2022/11/04 13:23:43;;;;;;;6.70;1.60;;;11.90;99.90;;;;;;5013322;28;20293;-77
2022/11/04 13:26:18;;;;;;;8.97;2.17;;;11.90;99.90;;;;;;5013778;28;20285;-77
2022/11/04 13:28:52;;;;;;;7.97;1.63;;;11.90;99.90;;;;;;5014290;28;20612;-72
2022/11/04 13:31:28;;;;;;;8.98;1.50;;;12.00;99.90;;;;;;5013735;28;20042;-75
2022/11/04 13:34:00;;;;;;;9.20;1.67;;;12.00;99.90;;;;;;5014138;28;20452;-78
2022/11/04 13:36:43;;;;;;;8.33;1.23;;;12.00;99.90;;;;;;5012314;28;20288;-77
2022/11/04 13:39:21;;;;;;;8.10;2.00;;;12.10;99.90;;;;;;5014384;28;20277;-78
2022/11/04 13:41:59;;;;;;;8.87;1.63;;;12.20;99.90;;;;;;5014211;28;20366;-79
2022/11/04 13:44:27;;;;;;;9.80;2.17;;;12.30;99.90;;;;;;5013730;28;20289;-74